Time;durP1;ratioP1;P1;durP2;ratioP2;P2;SDS_P1;SDS_P2;PMS_P1;PMS_P2;Temp;Humidity;BMP_temperature;BMP_pressure;BME280_temperature;BME280_humidity;BME280_pressure;Samples;Min_cycle;Max_cycle;Signal;HPM_P1;HPM_P2
2023/08/31 00:02:14;;;;;;;;;2.00;2.00;;;;;19.76;47.91;100753.53;5077962;27;45452;-65
2023/08/31 00:04:39;;;;;;;;;4.00;4.00;;;;;19.83;47.86;100763.03;5078214;27;45457;-64
2023/08/31 00:07:06;;;;;;;;;3.00;3.00;;;;;19.86;47.73;100762.94;5079676;27;45493;-65
2023/08/31 00:09:32;;;;;;;;;5.33;2.00;;;;;19.79;47.61;100748.13;5079068;27;46361;-65
2023/08/31 00:12:01;;;;;;;;;3.00;2.67;;;;;19.80;47.89;100760.50;5077055;27;45449;-64
2023/08/31 00:14:27;;;;;;;;;5.33;2.00;;;;;19.83;47.99;100768.34;5076605;27;45345;-63
2023/08/31 00:16:53;;;;;;;;;3.00;2.33;;;;;19.79;47.80;100769.41;5076831;28;45440;-63
2023/08/31 00:19:19;;;;;;;;;3.00;1.67;;;;;19.76;47.83;100766.81;5076848;28;47744;-66
2023/08/31 00:21:46;;;;;;;;;3.67;1.67;;;;;19.84;47.49;100774.56;5077961;27;45484;-64
2023/08/31 00:24:12;;;;;;;;;3.00;3.00;;;;;19.84;47.69;100780.72;5078227;27;45733;-65
2023/08/31 00:26:42;;;;;;;;;5.00;3.00;;;;;19.83;47.87;100768.34;5078464;27;45326;-66
2023/08/31 00:29:10;;;;;;;;;5.00;3.00;;;;;19.87;47.68;100774.44;5078072;27;45543;-64
2023/08/31 00:31:36;;;;;;;;;4.00;2.33;;;;;19.84;47.42;100772.75;5077289;27;45771;-63
2023/08/31 00:34:04;;;;;;;;;3.00;2.00;;;;;19.84;47.77;100770.09;5077629;27;45436;-65
2023/08/31 00:36:33;;;;;;;;;5.00;3.00;;;;;19.78;47.70;100761.47;5078298;27;45337;-64
2023/08/31 00:39:10;;;;;;;;;7.33;2.33;;;;;19.75;47.57;100750.97;5079047;27;45404;-63
2023/08/31 00:41:35;;;;;;;;;3.00;3.00;;;;;19.72;47.86;100743.97;5077742;28;45554;-65
2023/08/31 00:44:02;;;;;;;;;4.33;3.67;;;;;19.72;48.25;100746.63;5079006;28;45230;-64
2023/08/31 00:46:27;;;;;;;;;3.00;3.00;;;;;19.61;48.46;100733.66;5076455;28;46114;-64
2023/08/31 00:48:54;;;;;;;;;3.00;3.00;;;;;19.62;48.38;100742.50;5077558;27;46547;-64
2023/08/31 00:51:20;;;;;;;;;3.67;3.00;;;;;19.62;48.01;100746.06;5078635;28;45516;-65
2023/08/31 00:53:46;;;;;;;;;3.00;2.00;;;;;19.69;48.09;100755.56;5077927;27;45381;-65
2023/08/31 00:56:13;;;;;;;;;4.33;2.00;;;;;19.56;48.32;100742.75;5077492;27;45456;-65
2023/08/31 00:58:40;;;;;;;;;3.00;2.67;;;;;19.55;48.21;100738.31;5077756;27;46263;-65
2023/08/31 01:01:20;;;;;;;;;4.00;2.67;;;;;19.56;48.42;100748.06;5078531;27;45304;-65
2023/08/31 01:03:49;;;;;;;;;7.00;3.67;;;;;19.56;48.25;100748.91;5078651;27;45436;-64
2023/08/31 01:06:41;;;;;;;;;3.67;3.67;;;;;19.57;48.53;100755.09;5078118;28;45547;-64
2023/08/31 01:09:27;;;;;;;;;3.67;2.33;;;;;19.57;48.56;100749.78;5076479;28;46419;-66
2023/08/31 01:11:59;;;;;;;;;2.67;2.67;;;;;19.41;48.93;100757.41;5056827;28;45501;-64
2023/08/31 01:14:34;;;;;;;;;2.67;2.00;;;;;19.43;48.62;100752.91;5039770;28;45474;-63
2023/08/31 01:17:02;;;;;;;;;4.67;3.00;;;;;19.32;48.99;100749.78;5057051;28;45545;-64
2023/08/31 01:19:48;;;;;;;;;3.33;3.00;;;;;19.40;48.87;100753.88;5056071;28;46189;-66
2023/08/31 01:22:22;;;;;;;;;4.33;2.33;;;;;19.43;48.58;100767.06;5056330;28;45461;-64
2023/08/31 01:24:48;;;;;;;;;2.33;1.00;;;;;19.40;48.90;100769.81;5057291;28;45410;-64
2023/08/31 01:27:14;;;;;;;;;3.67;2.33;;;;;19.41;48.84;100771.56;5056937;28;45348;-65
2023/08/31 01:29:40;;;;;;;;;4.33;2.00;;;;;19.43;48.86;100769.72;5056352;28;46057;-63
2023/08/31 01:32:07;;;;;;;;;3.00;2.00;;;;;19.30;49.15;100764.88;5056718;28;45346;-65
2023/08/31 01:34:33;;;;;;;;;4.67;2.67;;;;;19.19;49.45;100776.72;5056574;28;45540;-64
2023/08/31 01:37:03;;;;;;;;;4.00;2.67;;;;;19.06;49.61;100762.13;5056716;28;45505;-63
2023/08/31 01:39:43;;;;;;;;;3.00;2.00;;;;;19.07;49.68;100767.34;5056131;28;45508;-65
2023/08/31 01:42:13;;;;;;;;;4.00;4.00;;;;;19.10;49.54;100765.53;5038300;28;45640;-65
2023/08/31 01:44:39;;;;;;;;;3.00;3.00;;;;;19.09;49.70;100769.13;5055601;28;45791;-63
2023/08/31 01:47:06;;;;;;;;;5.00;3.00;;;;;18.91;49.88;100754.63;5039927;28;45335;-63
2023/08/31 01:49:39;;;;;;;;;3.00;3.00;;;;;18.96;49.85;100756.25;5037906;28;46331;-65
2023/08/31 01:52:05;;;;;;;;;5.00;3.00;;;;;19.14;49.59;100772.47;5057406;28;45431;-65
2023/08/31 01:54:31;;;;;;;;;2.33;2.33;;;;;19.18;49.54;100774.13;5057956;28;45462;-65
2023/08/31 01:56:57;;;;;;;;;4.00;4.00;;;;;19.12;49.64;100766.34;5058002;28;45273;-65
2023/08/31 01:59:22;;;;;;;;;7.33;4.00;;;;;19.12;49.98;100766.34;5057428;28;45359;-65
2023/08/31 02:01:48;;;;;;;;;3.00;3.00;;;;;19.00;49.91;100765.81;5056343;28;45455;-64
2023/08/31 02:04:13;;;;;;;;;3.00;2.00;;;;;18.99;50.06;100763.25;5056214;28;45225;-64
2023/08/31 02:06:39;;;;;;;;;5.00;2.00;;;;;18.95;50.05;100764.25;5056369;28;45243;-63
2023/08/31 02:09:06;;;;;;;;;4.00;2.00;;;;;18.93;50.34;100752.81;5056170;28;45447;-63
2023/08/31 02:11:31;;;;;;;;;2.00;2.00;;;;;18.96;50.37;100758.00;5038578;28;45420;-65
2023/08/31 02:13:58;;;;;;;;;2.33;2.33;;;;;18.93;50.27;100752.81;5056236;28;45700;-66
2023/08/31 02:16:24;;;;;;;;;3.00;3.00;;;;;19.01;50.20;100756.97;5056294;28;45499;-64
2023/08/31 02:18:49;;;;;;;;;5.67;2.00;;;;;18.91;50.00;100739.63;5056284;28;46116;-65
2023/08/31 02:21:15;;;;;;;;;3.67;3.00;;;;;19.12;50.13;100769.00;5034644;28;45509;-65
2023/08/31 02:23:40;;;;;;;;;4.33;3.00;;;;;19.02;50.08;100755.16;5052339;28;45386;-63
2023/08/31 02:26:06;;;;;;;;;4.00;3.00;;;;;19.11;50.04;100764.63;5071515;28;45374;-65
2023/08/31 02:28:32;;;;;;;;;4.00;3.00;;;;;19.10;49.85;100760.22;5056082;28;46000;-65
2023/08/31 02:31:02;;;;;;;;;4.00;3.00;;;;;19.01;50.24;100749.00;5037580;28;45630;-65
2023/08/31 02:33:28;;;;;;;;;5.33;3.33;;;;;19.13;49.75;100760.13;5034836;28;45458;-65
2023/08/31 02:35:56;;;;;;;;;3.00;3.00;;;;;19.14;49.83;100745.94;5051148;28;45339;-63
2023/08/31 02:38:22;;;;;;;;;1.33;1.33;;;;;19.18;49.64;100744.91;5056184;28;45436;-64
2023/08/31 02:40:48;;;;;;;;;3.00;3.00;;;;;19.26;49.55;100762.31;5054335;28;45536;-65
2023/08/31 02:43:14;;;;;;;;;6.00;4.00;;;;;19.28;49.56;100767.59;5055737;28;45538;-64
2023/08/31 02:45:40;;;;;;;;;7.00;5.67;;;;;19.21;49.36;100758.09;5055872;28;45485;-63
2023/08/31 02:48:08;;;;;;;;;4.00;4.00;;;;;19.21;49.35;100758.09;5056356;28;46001;-64
2023/08/31 02:50:35;;;;;;;;;4.67;3.00;;;;;19.12;49.79;100759.25;5056165;28;45332;-64
2023/08/31 02:53:01;;;;;;;;;4.00;3.00;;;;;19.18;49.70;100763.50;5055382;28;45742;-64
2023/08/31 02:55:26;;;;;;;;;3.67;3.00;;;;;19.19;49.62;100766.09;5057844;28;45450;-64
2023/08/31 02:57:53;;;;;;;;;3.00;3.00;;;;;19.15;49.68;100768.91;5058983;28;45458;-64
2023/08/31 03:00:21;;;;;;;;;3.67;3.00;;;;;19.12;49.99;100769.88;5058796;28;45426;-65
2023/08/31 03:02:51;;;;;;;;;5.00;2.00;;;;;19.05;50.05;100753.28;5059530;28;45419;-64
2023/08/31 03:05:18;;;;;;;;;2.67;2.67;;;;;19.16;49.97;100770.66;5058771;28;45323;-64
2023/08/31 03:07:43;;;;;;;;;5.67;4.33;;;;;19.11;49.83;100757.53;5058583;28;45431;-64
2023/08/31 03:10:09;;;;;;;;;4.67;3.33;;;;;19.22;49.97;100765.13;5069045;27;45325;-64
2023/08/31 03:12:34;;;;;;;;;6.67;3.00;;;;;19.04;49.91;100740.06;5080196;27;45424;-63
2023/08/31 03:15:00;;;;;;;;;3.67;2.33;;;;;19.22;50.08;100767.78;5080284;27;45463;-64
2023/08/31 03:17:26;;;;;;;;;2.67;2.67;;;;;19.24;49.95;100755.31;5080489;27;45496;-63
2023/08/31 03:19:51;;;;;;;;;4.00;4.00;;;;;19.19;49.92;100760.78;5080481;27;45336;-64
2023/08/31 03:22:17;;;;;;;;;2.00;2.00;;;;;19.20;49.82;100746.59;5080391;27;45424;-64
2023/08/31 03:24:42;;;;;;;;;2.67;2.67;;;;;19.23;50.13;100761.56;5079433;28;45419;-64
2023/08/31 03:27:08;;;;;;;;;0.00;0.00;;;;;19.20;49.88;100745.75;5111827;27;45431;-64
2023/08/31 03:29:34;;;;;;;;;4.00;2.00;;;;;18.96;50.30;100726.16;5078955;27;45535;-64
2023/08/31 03:32:01;;;;;;;;;3.67;3.00;;;;;19.14;50.37;100759.22;5079996;27;45295;-64
2023/08/31 03:34:32;;;;;;;;;3.33;2.33;;;;;19.10;50.11;100750.50;5079679;27;45457;-65
2023/08/31 03:36:58;;;;;;;;;2.33;2.00;;;;;19.06;50.16;100759.47;5078117;27;46877;-65
2023/08/31 03:39:25;;;;;;;;;2.67;2.00;;;;;19.06;50.40;100759.47;5078522;27;46047;-65
2023/08/31 03:41:50;;;;;;;;;4.00;3.00;;;;;19.07;50.58;100753.22;5111450;27;45589;-63
2023/08/31 03:44:16;;;;;;;;;5.00;3.00;;;;;19.09;50.19;100750.53;5078915;27;45456;-63
2023/08/31 03:46:42;;;;;;;;;4.00;2.00;;;;;19.09;50.09;100750.53;5076886;28;45372;-64
2023/08/31 03:49:08;;;;;;;;;3.00;3.00;;;;;19.04;50.54;100743.59;5078824;27;45836;-65
2023/08/31 03:51:33;;;;;;;;;3.00;3.00;;;;;19.02;50.29;100747.22;5077112;28;45561;-65
2023/08/31 03:53:59;;;;;;;;;4.00;2.00;;;;;19.03;50.41;100743.63;5079743;27;45256;-65
2023/08/31 03:56:25;;;;;;;;;2.33;2.00;;;;;18.96;50.32;100734.13;5078444;27;45391;-66
2023/08/31 03:58:50;;;;;;;;;5.67;4.00;;;;;18.97;50.24;100744.69;5078567;28;45429;-64
2023/08/31 04:01:16;;;;;;;;;3.67;3.67;;;;;19.04;50.52;100753.34;5079847;28;45487;-66
2023/08/31 04:03:45;;;;;;;;;2.33;2.33;;;;;19.04;50.52;100746.22;5079107;27;45408;-64
2023/08/31 04:06:10;;;;;;;;;4.00;3.00;;;;;19.01;50.64;100746.34;5076014;28;47684;-65
2023/08/31 04:08:40;;;;;;;;;4.33;3.00;;;;;19.03;50.72;100755.13;5079600;27;45584;-64
2023/08/31 04:11:05;;;;;;;;;5.00;2.67;;;;;18.99;50.57;100753.50;5078386;28;45225;-64
2023/08/31 04:13:31;;;;;;;;;7.00;4.00;;;;;19.00;50.71;100749.91;5079037;27;45368;-64
2023/08/31 04:15:56;;;;;;;;;4.67;3.33;;;;;18.99;50.76;100753.50;5078475;28;45455;-64
2023/08/31 04:18:22;;;;;;;;;3.67;3.00;;;;;18.88;50.65;100738.81;5077979;27;45342;-64
2023/08/31 04:20:54;;;;;;;;;4.00;4.00;;;;;18.92;50.90;100757.25;5078214;27;45323;-65
2023/08/31 04:23:21;;;;;;;;;3.33;3.33;;;;;18.90;51.35;100748.47;5078927;28;45532;-64
2023/08/31 04:25:47;;;;;;;;;5.00;4.00;;;;;18.91;51.25;100752.00;5077927;27;45524;-64
2023/08/31 04:28:14;;;;;;;;;3.33;3.33;;;;;18.54;51.69;100716.00;5077321;27;45433;-64
2023/08/31 04:30:40;;;;;;;;;4.00;3.67;;;;;18.67;51.42;100738.56;5077575;27;45433;-64
2023/08/31 04:33:07;;;;;;;;;3.67;3.33;;;;;18.76;51.38;100742.72;5077922;27;45416;-64
2023/08/31 04:35:33;;;;;;;;;3.67;3.00;;;;;18.80;51.43;100755.00;5077686;27;45415;-65
2023/08/31 04:37:59;;;;;;;;;3.33;3.33;;;;;18.78;51.87;100759.47;5077867;27;45413;-64
2023/08/31 04:40:24;;;;;;;;;4.33;3.00;;;;;18.68;51.91;100755.34;5076763;27;45299;-64
2023/08/31 04:42:51;;;;;;;;;5.00;3.00;;;;;18.76;51.80;100771.91;5077934;27;45432;-65
2023/08/31 04:45:17;;;;;;;;;4.33;3.00;;;;;18.77;52.08;100765.69;5077504;27;46204;-65
2023/08/31 04:47:43;;;;;;;;;4.67;3.00;;;;;18.56;52.15;100741.56;5077365;27;45435;-64
2023/08/31 04:50:09;;;;;;;;;5.33;3.67;;;;;18.76;51.88;100779.84;5077621;27;45523;-64
2023/08/31 04:52:34;;;;;;;;;3.00;3.00;;;;;18.73;52.40;100775.50;5078059;27;45354;-65
2023/08/31 04:55:12;;;;;;;;;3.67;3.67;;;;;18.62;52.10;100759.91;5077656;27;45587;-65
2023/08/31 04:57:38;;;;;;;;;6.00;4.00;;;;;18.65;52.25;100757.19;5078466;27;45416;-65
2023/08/31 05:00:07;;;;;;;;;4.00;3.67;;;;;18.54;52.31;100756.66;5077644;27;45507;-64
2023/08/31 05:02:32;;;;;;;;;4.00;4.00;;;;;18.68;52.49;100779.22;5077380;27;45583;-64
2023/08/31 05:04:58;;;;;;;;;3.33;3.33;;;;;18.54;52.61;100766.38;5077578;27;45532;-64
2023/08/31 05:07:24;;;;;;;;;4.33;4.00;;;;;18.62;52.67;100780.28;5077021;27;45480;-65
2023/08/31 05:09:50;;;;;;;;;3.00;3.00;;;;;18.61;52.75;100781.19;5077413;27;45446;-64
2023/08/31 05:12:17;;;;;;;;;3.67;3.00;;;;;18.60;52.94;100775.03;5076845;27;45503;-65
2023/08/31 05:14:43;;;;;;;;;4.00;4.00;;;;;18.60;52.74;100782.09;5076564;27;46111;-64
2023/08/31 05:17:08;;;;;;;;;3.33;3.33;;;;;18.57;52.90;100779.56;5077711;28;45511;-65
2023/08/31 05:19:35;;;;;;;;;7.00;5.00;;;;;18.57;53.27;100771.59;5076519;27;45557;-65
2023/08/31 05:22:01;;;;;;;;;7.67;4.00;;;;;18.65;52.30;100775.75;5076450;27;45530;-66
2023/08/31 05:24:32;;;;;;;;;4.33;4.33;;;;;18.49;52.52;100757.72;5075168;27;47735;-65
2023/08/31 05:26:58;;;;;;;;;5.67;4.00;;;;;18.71;52.14;100781.78;5077346;27;45437;-64
2023/08/31 05:29:32;;;;;;;;;6.33;5.67;;;;;18.29;52.63;100732.63;5077187;27;45448;-67
2023/08/31 05:31:58;;;;;;;;;4.00;4.00;;;;;18.15;52.67;100710.97;5077277;27;45399;-66
2023/08/31 05:34:25;;;;;;;;;5.33;4.67;;;;;18.55;52.93;100776.06;5076903;27;45354;-65
2023/08/31 05:36:50;;;;;;;;;4.33;4.33;;;;;18.54;53.08;100782.31;5077471;27;45386;-66
2023/08/31 05:39:19;;;;;;;;;9.33;3.67;;;;;18.32;53.17;100766.13;5077928;27;45483;-65
2023/08/31 05:41:51;;;;;;;;;5.33;4.00;;;;;18.52;52.58;100798.25;5077164;27;45402;-65
2023/08/31 05:44:16;;;;;;;;;7.33;4.00;;;;;18.34;52.55;100757.25;5076500;27;46520;-64
2023/08/31 05:46:43;;;;;;;;;5.33;5.33;;;;;18.32;52.38;100763.50;5076699;28;45500;-65
2023/08/31 05:49:09;;;;;;;;;3.00;3.00;;;;;18.45;52.66;100796.69;5076645;27;45502;-64
2023/08/31 05:51:38;;;;;;;;;3.33;3.00;;;;;18.52;52.61;100814.16;5077139;27;45923;-63
2023/08/31 05:54:04;;;;;;;;;3.33;3.00;;;;;18.55;52.46;100811.41;5076503;27;45530;-64
2023/08/31 05:56:29;;;;;;;;;6.00;4.67;;;;;18.58;52.45;100808.69;5075901;27;45553;-64
2023/08/31 05:58:55;;;;;;;;;5.33;4.67;;;;;18.64;52.37;100805.84;5076525;28;45461;-65
2023/08/31 06:01:24;;;;;;;;;3.33;3.33;;;;;18.60;51.95;100793.59;5076703;28;45605;-65
2023/08/31 06:03:51;;;;;;;;;3.33;3.33;;;;;18.74;52.27;100808.22;5076102;27;46141;-65
2023/08/31 06:06:16;;;;;;;;;4.33;3.67;;;;;18.76;51.93;100806.38;5076420;27;45443;-64
2023/08/31 06:08:43;;;;;;;;;5.67;3.00;;;;;18.68;51.95;100784.53;5076413;27;45554;-65
2023/08/31 06:11:09;;;;;;;;;4.00;3.67;;;;;18.80;51.90;100795.66;5078071;27;45394;-64
2023/08/31 06:13:35;;;;;;;;;3.00;3.00;;;;;18.82;51.91;100801.78;5077715;28;45366;-63
2023/08/31 06:16:01;;;;;;;;;5.67;4.33;;;;;18.96;51.85;100824.34;5077289;28;45407;-65
2023/08/31 06:18:26;;;;;;;;;4.33;3.00;;;;;18.98;51.92;100819.88;5076221;27;45478;-64
2023/08/31 06:20:52;;;;;;;;;5.67;3.33;;;;;18.91;52.28;100823.66;5076590;28;45381;-63
2023/08/31 06:23:17;;;;;;;;;6.33;3.33;;;;;18.92;52.20;100818.28;5075540;28;45520;-64
2023/08/31 06:25:45;;;;;;;;;4.00;3.00;;;;;18.97;52.04;100821.66;5076814;27;45435;-65
2023/08/31 06:28:12;;;;;;;;;5.33;4.33;;;;;18.96;51.75;100811.97;5076399;27;45325;-65
2023/08/31 06:30:38;;;;;;;;;3.00;3.00;;;;;18.68;51.92;100761.53;5079145;27;45572;-64
2023/08/31 06:33:04;;;;;;;;;2.33;2.33;;;;;18.93;52.15;100813.84;5079489;27;46130;-65
2023/08/31 06:35:33;;;;;;;;;4.00;4.00;;;;;19.04;51.98;100823.22;5079593;27;45338;-63
2023/08/31 06:37:59;;;;;;;;;5.00;4.67;;;;;19.06;52.15;100823.19;5079562;27;45319;-65
2023/08/31 06:40:25;;;;;;;;;7.33;5.33;;;;;18.98;52.31;100826.09;5079978;28;45471;-64
2023/08/31 06:42:50;;;;;;;;;8.33;5.33;;;;;18.84;52.23;100807.06;5079185;28;45730;-63
2023/08/31 06:45:16;;;;;;;;;5.00;4.00;;;;;19.03;52.39;100824.16;5079580;28;45451;-67
2023/08/31 06:47:41;;;;;;;;;7.33;4.67;;;;;18.68;52.36;100763.31;5080521;27;45414;-64
2023/08/31 06:50:07;;;;;;;;;32.33;28.00;;;;;19.07;52.54;100819.59;5081281;27;45325;-65
2023/08/31 06:52:33;;;;;;;;;9.00;9.00;;;;;19.08;52.45;100829.31;5078700;28;45764;-67
2023/08/31 06:54:59;;;;;;;;;13.33;7.00;;;;;19.02;52.94;100817.06;5079416;27;45428;-63
2023/08/31 06:57:26;;;;;;;;;9.00;7.33;;;;;19.05;53.07;100830.28;5080857;27;45355;-64
2023/08/31 06:59:52;;;;;;;;;6.00;6.00;;;;;19.09;52.46;100838.13;5079912;27;45425;-64
2023/08/31 07:02:19;;;;;;;;;6.33;4.33;;;;;18.97;52.73;100815.50;5079255;27;45397;-65
2023/08/31 07:04:45;;;;;;;;;7.33;7.00;;;;;19.10;53.35;100838.09;5079272;27;45657;-67
2023/08/31 07:07:13;;;;;;;;;11.00;7.67;;;;;19.06;52.85;100826.69;5078988;27;45534;-64
2023/08/31 07:09:38;;;;;;;;;5.67;5.67;;;;;19.06;52.86;100839.97;5077867;28;45617;-66
2023/08/31 07:12:04;;;;;;;;;6.67;5.67;;;;;19.06;53.01;100847.06;5078557;27;45339;-64
2023/08/31 07:14:33;;;;;;;;;6.00;6.00;;;;;19.12;52.86;100848.66;5078955;27;45393;-68
2023/08/31 07:16:58;;;;;;;;;4.00;4.00;;;;;19.12;53.27;100844.19;5079680;27;45575;-66
2023/08/31 07:19:24;;;;;;;;;4.67;4.67;;;;;19.12;53.76;100844.19;5080833;27;45267;-64
2023/08/31 07:21:49;;;;;;;;;7.00;6.67;;;;;19.18;52.79;100835.19;5077761;28;47674;-65
2023/08/31 07:24:15;;;;;;;;;4.00;4.00;;;;;19.29;52.13;100851.63;5078766;27;45495;-68
2023/08/31 07:26:40;;;;;;;;;6.67;6.00;;;;;19.37;53.25;100849.59;5079473;27;45792;-65
2023/08/31 07:29:06;;;;;;;;;7.33;5.33;;;;;19.49;52.49;100854.50;5079526;27;45417;-66
2023/08/31 07:31:32;;;;;;;;;7.00;7.00;;;;;19.58;52.66;100861.31;5078900;28;45450;-66
2023/08/31 07:33:58;;;;;;;;;4.33;4.00;;;;;19.54;52.18;100841.06;5111795;27;45460;-69
2023/08/31 07:36:24;;;;;;;;;6.00;3.67;;;;;19.59;52.16;100851.56;5078959;28;45511;-67
2023/08/31 07:38:50;;;;;;;;;4.00;4.00;;;;;19.58;52.20;100857.78;5078086;28;45667;-68
2023/08/31 07:41:16;;;;;;;;;5.33;5.33;;;;;19.64;51.65;100865.53;5079098;28;45915;-65
2023/08/31 07:43:41;;;;;;;;;6.00;4.00;;;;;19.65;51.62;100864.63;5079683;28;45444;-64
2023/08/31 07:46:07;;;;;;;;;5.00;5.00;;;;;19.70;52.27;100862.72;5079282;28;45382;-63
2023/08/31 07:48:32;;;;;;;;;5.00;5.00;;;;;19.76;51.11;100870.47;5079792;27;45474;-65
2023/08/31 07:50:58;;;;;;;;;6.33;4.33;;;;;19.78;51.04;100862.47;5079738;27;45415;-63
2023/08/31 07:53:23;;;;;;;;;4.33;4.00;;;;;19.82;50.98;100880.91;5079289;28;45515;-64
2023/08/31 07:55:58;;;;;;;;;4.33;4.33;;;;;19.71;50.83;100848.50;5079242;27;45551;-65
2023/08/31 07:58:24;;;;;;;;;3.33;3.33;;;;;19.85;50.66;100875.47;5078993;27;45580;-66
2023/08/31 08:00:53;;;;;;;;;8.00;5.00;;;;;19.88;50.82;100874.50;5077183;28;47768;-65
2023/08/31 08:03:18;;;;;;;;;6.00;4.00;;;;;19.84;50.56;100855.16;5079493;27;45281;-65
2023/08/31 08:05:44;;;;;;;;;7.00;7.00;;;;;20.11;50.70;100879.03;5079593;27;45533;-68
2023/08/31 08:08:10;;;;;;;;;5.33;5.33;;;;;20.06;50.37;100878.31;5079754;27;45543;-66
2023/08/31 08:10:35;;;;;;;;;5.67;5.00;;;;;20.11;50.36;100882.53;5078063;27;46563;-63
2023/08/31 08:13:01;;;;;;;;;4.33;4.33;;;;;20.26;50.11;100880.25;5078085;27;45391;-65
2023/08/31 08:15:26;;;;;;;;;4.00;4.00;;;;;20.27;49.53;100871.38;5077969;27;45398;-66
2023/08/31 08:17:53;;;;;;;;;6.33;3.00;;;;;20.29;49.27;100858.91;5078434;28;45302;-67
2023/08/31 08:20:19;;;;;;;;;6.33;5.67;;;;;20.46;49.28;100877.75;5076378;28;46777;-63
2023/08/31 08:22:45;;;;;;;;;2.67;2.67;;;;;20.51;48.49;100877.59;5110444;27;45541;-64
2023/08/31 08:25:10;;;;;;;;;6.33;3.00;;;;;20.40;48.50;100854.03;5076690;28;45507;-63
2023/08/31 08:27:40;;;;;;;;;6.00;4.33;;;;;20.45;48.42;100854.72;5078029;27;45687;-61
2023/08/31 08:30:06;;;;;;;;;4.33;4.33;;;;;20.42;48.61;100861.97;5076448;28;47443;-62
2023/08/31 08:32:33;;;;;;;;;5.00;3.00;;;;;20.57;48.10;100869.41;5077688;27;45732;-64
2023/08/31 08:34:58;;;;;;;;;4.67;3.33;;;;;20.64;47.95;100870.91;5078712;27;45448;-65
2023/08/31 08:37:25;;;;;;;;;5.33;5.00;;;;;20.63;47.96;100865.66;5077904;27;45900;-65
2023/08/31 08:39:51;;;;;;;;;10.33;3.00;;;;;20.71;47.61;100858.22;5077426;27;46397;-64
2023/08/31 08:42:19;;;;;;;;;3.33;3.33;;;;;20.69;47.73;100854.75;5077943;27;45458;-64
2023/08/31 08:44:44;;;;;;;;;4.33;4.33;;;;;20.80;47.16;100868.53;5076525;28;45401;-65
2023/08/31 08:47:12;;;;;;;;;3.33;3.00;;;;;20.66;47.36;100855.75;5078076;27;45303;-63
2023/08/31 08:49:38;;;;;;;;;5.00;3.67;;;;;20.75;47.40;100886.47;5077182;27;45433;-65
2023/08/31 08:52:08;;;;;;;;;4.33;4.00;;;;;20.67;47.79;100867.28;5077224;27;45433;-64
2023/08/31 08:54:35;;;;;;;;;3.00;3.00;;;;;20.78;47.35;100882.81;5076465;27;45356;-65
2023/08/31 08:57:00;;;;;;;;;5.67;4.67;;;;;20.77;47.20;100878.44;5079068;27;45321;-65
2023/08/31 08:59:27;;;;;;;;;5.33;5.33;;;;;20.75;47.91;100883.81;5077588;27;45477;-63
2023/08/31 09:01:53;;;;;;;;;2.00;2.00;;;;;20.66;49.27;100876.19;5077148;27;45751;-64
2023/08/31 09:04:19;;;;;;;;;5.33;5.33;;;;;20.65;48.78;100885.97;5077530;27;45452;-63
2023/08/31 09:06:44;;;;;;;;;4.00;4.00;;;;;20.61;47.74;100879.00;5076732;28;46634;-62
2023/08/31 09:09:10;;;;;;;;;3.67;3.67;;;;;20.67;48.46;100891.22;5077232;27;45361;-63
2023/08/31 09:11:36;;;;;;;;;4.00;3.33;;;;;20.66;47.41;100884.16;5078123;27;45475;-64
2023/08/31 09:14:22;;;;;;;;;5.00;3.00;;;;;20.67;48.18;100886.78;5078935;27;45393;-63
2023/08/31 09:16:51;;;;;;;;;4.00;4.00;;;;;20.70;47.99;100880.47;5076198;28;45473;-64
2023/08/31 09:19:24;;;;;;;;;6.33;4.67;;;;;20.77;48.25;100883.75;5077989;27;45619;-63
2023/08/31 09:21:51;;;;;;;;;8.33;3.00;;;;;20.74;47.84;100869.66;5077497;27;45261;-64
2023/08/31 09:24:18;;;;;;;;;6.67;3.33;;;;;20.84;48.33;100879.94;5076263;28;45453;-65
2023/08/31 09:26:48;;;;;;;;;3.33;3.00;;;;;20.95;48.31;100873.28;5077934;27;45575;-63
2023/08/31 09:29:14;;;;;;;;;5.67;4.00;;;;;21.09;48.98;100871.84;5077629;27;46442;-64
2023/08/31 09:31:44;;;;;;;;;4.67;4.33;;;;;21.22;48.08;100874.91;5076117;28;45366;-64
2023/08/31 09:34:10;;;;;;;;;6.67;3.33;;;;;21.41;47.64;100880.41;5077423;27;45528;-66
2023/08/31 09:36:39;;;;;;;;;4.00;4.00;;;;;21.37;47.88;100874.28;5076176;28;45464;-65
2023/08/31 09:39:06;;;;;;;;;3.67;3.67;;;;;21.38;47.91;100871.56;5077496;27;45493;-66
2023/08/31 09:41:33;;;;;;;;;6.00;4.33;;;;;21.45;47.52;100874.88;5077133;28;45481;-65
2023/08/31 09:44:16;;;;;;;;;6.00;3.67;;;;;21.43;47.73;100867.84;5077208;27;45635;-63
2023/08/31 09:46:43;;;;;;;;;5.00;4.00;;;;;21.28;47.71;100866.66;5077042;27;45438;-66
2023/08/31 09:49:13;;;;;;;;;3.67;3.67;;;;;21.07;48.39;100857.72;5076972;27;45318;-65
2023/08/31 09:51:41;;;;;;;;;5.33;5.00;;;;;20.94;48.57;100852.03;5077158;27;45366;-63
2023/08/31 09:54:09;;;;;;;;;5.33;3.33;;;;;20.91;49.22;100862.81;5076861;27;45367;-62
2023/08/31 09:56:37;;;;;;;;;7.67;4.67;;;;;20.83;48.91;100848.91;5076937;27;45478;-65
2023/08/31 09:59:03;;;;;;;;;5.00;4.00;;;;;20.96;48.98;100860.81;5076445;27;47486;-63
2023/08/31 10:01:29;;;;;;;;;6.00;4.67;;;;;21.02;48.71;100868.56;5077642;28;45433;-63
2023/08/31 10:03:55;;;;;;;;;6.33;4.67;;;;;20.97;48.83;100859.88;5078963;27;45265;-66
2023/08/31 10:06:22;;;;;;;;;6.00;4.00;;;;;20.74;49.23;100837.69;5086720;27;45364;-64
2023/08/31 10:08:48;;;;;;;;;5.33;5.00;;;;;20.84;49.21;100864.84;5082312;27;46147;-66
2023/08/31 10:11:15;;;;;;;;;3.00;3.00;;;;;20.84;49.38;100866.63;5080626;27;45523;-63
2023/08/31 10:13:50;;;;;;;;;5.00;5.00;;;;;20.80;49.62;100857.03;5080692;27;45527;-64
2023/08/31 10:16:18;;;;;;;;;7.00;4.33;;;;;20.75;49.57;100850.06;5079664;28;45382;-63
2023/08/31 10:18:44;;;;;;;;;5.67;5.00;;;;;20.54;50.72;100841.06;5080690;28;45267;-65
2023/08/31 10:21:10;;;;;;;;;6.67;5.33;;;;;20.49;51.16;100850.16;5080728;27;45521;-64
2023/08/31 10:23:44;;;;;;;;;6.67;4.67;;;;;20.36;52.06;100844.44;5080521;27;45508;-63
2023/08/31 10:26:09;;;;;;;;;6.00;4.00;;;;;20.20;52.20;100852.09;5080927;27;45552;-62
2023/08/31 10:28:41;;;;;;;;;7.67;5.33;;;;;20.06;53.15;100846.41;5081125;28;46183;-65
2023/08/31 10:31:09;;;;;;;;;5.33;4.00;;;;;20.09;53.39;100864.91;5081577;28;45516;-65
2023/08/31 10:33:39;;;;;;;;;6.33;4.33;;;;;20.00;53.62;100846.63;5081746;28;45326;-65
2023/08/31 10:36:12;;;;;;;;;7.33;5.00;;;;;20.14;53.93;100839.03;5075929;27;45466;-64
2023/08/31 10:38:37;;;;;;;;;7.00;4.67;;;;;20.31;53.60;100849.03;5073916;27;46174;-65
2023/08/31 10:41:06;;;;;;;;;7.33;5.33;;;;;20.42;53.73;100844.19;5077913;27;45481;-63
2023/08/31 10:43:59;;;;;;;;;7.33;5.33;;;;;20.47;53.59;100844.88;5066200;27;45440;-66
2023/08/31 10:46:28;;;;;;;;;7.33;6.00;;;;;20.38;54.27;100853.22;5067878;27;45317;-64
2023/08/31 10:48:55;;;;;;;;;10.00;7.00;;;;;20.38;54.05;100850.56;5068968;27;45531;-66
2023/08/31 10:51:31;;;;;;;;;9.00;6.00;;;;;20.42;53.47;100843.34;5070954;27;45440;-63
2023/08/31 10:54:09;;;;;;;;;9.33;6.67;;;;;20.24;52.90;100827.16;5067782;27;45410;-66
2023/08/31 10:56:53;;;;;;;;;7.33;5.00;;;;;20.26;53.23;100845.69;5069945;27;45392;-68
2023/08/31 10:59:19;;;;;;;;;5.67;5.33;;;;;20.26;53.28;100835.03;5069483;27;45446;-66
2023/08/31 11:01:59;;;;;;;;;6.33;5.33;;;;;20.40;52.89;100837.22;5067692;27;45418;-66
2023/08/31 11:04:29;;;;;;;;;6.67;5.00;;;;;20.50;52.47;100847.47;5069804;27;45568;-65
2023/08/31 11:07:14;;;;;;;;;6.67;4.67;;;;;20.62;51.54;100827.53;5068587;27;45393;-65
2023/08/31 11:09:40;;;;;;;;;4.00;4.00;;;;;20.61;51.10;100833.75;5070955;27;45367;-65
2023/08/31 11:12:07;;;;;;;;;4.67;4.67;;;;;20.54;50.60;100835.75;5065966;27;45816;-65
2023/08/31 11:14:32;;;;;;;;;7.33;6.00;;;;;20.50;51.29;100827.94;5067440;27;45311;-65
2023/08/31 11:17:05;;;;;;;;;6.33;4.00;;;;;20.39;50.74;100820.38;5067987;27;45891;-65
2023/08/31 11:19:32;;;;;;;;;5.33;5.33;;;;;20.44;50.65;100817.56;5064990;27;46776;-65
2023/08/31 11:22:00;;;;;;;;;11.67;6.00;;;;;20.35;50.48;100816.09;5069752;27;45323;-66
2023/08/31 11:24:26;;;;;;;;;4.33;4.33;;;;;20.28;50.67;100818.09;5078129;28;45192;-64
2023/08/31 11:26:52;;;;;;;;;6.00;5.00;;;;;20.27;51.35;100813.72;5079642;27;45325;-66